Time;durP1;ratioP1;P1;durP2;ratioP2;P2;SDS_P1;SDS_P2;PMS_P1;PMS_P2;Temp;Humidity;BMP_temperature;BMP_pressure;BME280_temperature;BME280_humidity;BME280_pressure;Samples;Min_cycle;Max_cycle;Signal;HPM_P1;HPM_P2
2022/08/09 00:01:01;;;;;;;;;;;;;;;16.93;81.53;100342.72;5067024;28;20044;-71
2022/08/09 00:03:27;;;;;;;9.50;4.20;;;;;;;16.93;82.00;100328.09;5048209;28;19972;-71
2022/08/09 00:05:53;;;;;;;9.27;3.85;;;;;;;16.89;82.75;100314.06;5063436;28;20471;-71
2022/08/09 00:08:20;;;;;;;10.45;4.32;;;;;;;16.88;83.92;100304.16;5064421;28;20087;-70
2022/08/09 00:10:46;;;;;;;10.02;4.13;;;;;;;16.80;84.21;100291.88;5066329;28;20131;-71
2022/08/09 00:13:12;;;;;;;9.55;3.65;;;;;;;16.69;84.68;100294.00;5064502;28;20427;-71
2022/08/09 00:15:39;;;;;;;11.48;4.13;;;;;;;16.57;84.87;100291.75;5047261;28;20094;-69
2022/08/09 00:18:05;;;;;;;;;;;;;;;16.39;85.34;100284.31;5067698;28;20052;-72
2022/08/09 00:20:31;;;;;;;11.98;3.83;;;;;;;16.34;86.80;100265.09;5072853;28;20300;-70
2022/08/09 00:22:57;;;;;;;10.82;4.00;;;;;;;16.18;87.11;100275.59;5064193;28;20075;-71
2022/08/09 00:25:23;;;;;;;12.25;4.30;;;;;;;15.92;87.68;100281.50;5062594;28;20064;-72
2022/08/09 00:27:49;;;;;;;10.75;4.30;;;;;;;15.90;88.21;100297.53;5063563;28;20656;-72
2022/08/09 00:30:15;;;;;;;9.20;4.18;;;;;;;15.90;88.63;100284.53;5065866;28;20045;-71
2022/08/09 00:32:43;;;;;;;9.43;4.03;;;;;;;15.95;88.86;100265.19;5066219;28;20456;-71
2022/08/09 00:35:09;;;;;;;12.27;4.60;;;;;;;16.01;88.38;100254.91;5064977;28;20041;-70
2022/08/09 00:37:35;;;;;;;11.10;4.20;;;;;;;15.98;88.96;100239.75;5064529;28;20181;-70
2022/08/09 00:40:01;;;;;;;10.40;4.30;;;;;;;15.99;89.62;100241.38;5065065;28;20052;-70
2022/08/09 00:42:28;;;;;;;14.85;4.72;;;;;;;15.93;89.80;100239.00;5061361;28;20048;-70
2022/08/09 00:44:54;;;;;;;11.68;4.28;;;;;;;15.87;89.62;100233.56;5063571;28;20083;-71
2022/08/09 00:47:20;;;;;;;12.43;4.45;;;;;;;15.85;89.62;100232.22;5063084;28;20048;-72
2022/08/09 00:49:47;;;;;;;14.20;4.45;;;;;;;15.81;89.93;100233.94;5064988;28;20048;-70
2022/08/09 00:52:14;;;;;;;;;;;;;;;15.76;89.69;100228.47;5064088;28;20312;-72
2022/08/09 00:54:40;;;;;;;17.05;4.75;;;;;;;15.68;89.52;100221.72;5062301;28;19932;-70
2022/08/09 00:57:06;;;;;;;11.63;4.47;;;;;;;15.67;89.71;100226.41;5063019;28;20045;-71
2022/08/09 00:59:32;;;;;;;9.93;4.68;;;;;;;15.59;89.38;100236.19;5062076;28;20185;-72
2022/08/09 01:02:00;;;;;;;9.13;3.90;;;;;;;15.59;89.47;100254.63;5060442;28;20571;-70
2022/08/09 01:04:36;;;;;;;10.95;4.30;;;;;;;15.63;89.30;100261.22;5065924;28;20055;-70
2022/08/09 01:07:15;;;;;;;10.57;4.28;;;;;;;15.69;88.59;100253.69;5064405;28;20131;-70
2022/08/09 01:09:47;;;;;;;11.60;4.53;;;;;;;15.69;88.13;100268.28;5061612;28;20060;-71
2022/08/09 01:12:21;;;;;;;10.68;4.20;;;;;;;15.64;88.16;100273.03;5062617;28;20484;-71
2022/08/09 01:14:54;;;;;;;9.70;5.03;;;;;;;15.55;87.71;100265.47;5065366;28;20048;-70
2022/08/09 01:17:26;;;;;;;12.55;4.60;;;;;;;15.65;88.27;100275.50;5062444;28;20167;-72
2022/08/09 01:19:58;;;;;;;12.88;5.18;;;;;;;15.70;87.90;100277.38;5066192;28;20106;-67
2022/08/09 01:22:41;;;;;;;16.38;4.80;;;;;;;15.66;87.62;100282.66;5061886;28;20048;-65
2022/08/09 01:25:33;;;;;;;15.15;5.22;;;;;;;15.56;87.58;100280.03;5064711;28;20037;-67
2022/08/09 01:28:02;;;;;;;10.93;5.03;;;;;;;15.56;87.79;100288.31;5063729;28;20056;-67
2022/08/09 01:30:30;;;;;;;13.77;4.55;;;;;;;15.52;87.94;100290.03;5066328;28;20045;-71
2022/08/09 01:32:58;;;;;;;15.52;5.18;;;;;;;15.52;87.96;100285.31;5063267;28;20113;-71
2022/08/09 01:35:28;;;;;;;14.15;5.30;;;;;;;15.47;87.67;100292.84;5064362;28;20066;-67
2022/08/09 01:37:57;;;;;;;9.73;5.22;;;;;;;15.41;88.47;100298.41;5062473;28;20050;-67
2022/08/09 01:40:26;;;;;;;10.45;5.07;;;;;;;15.56;nan;100296.56;5064101;28;20494;-67
2022/08/09 01:42:54;;;;;;;12.07;5.03;;;;;;;15.62;87.59;100297.34;5062748;28;20650;-66
2022/08/09 01:45:23;;;;;;;12.52;5.30;;;;;;;15.57;87.57;100296.28;5062141;28;20192;-66
2022/08/09 01:47:50;;;;;;;11.57;5.28;;;;;;;15.53;87.42;100291.66;5062513;28;20045;-67
2022/08/09 01:50:17;;;;;;;;;;;;;;;15.52;87.30;100293.59;5064164;28;20143;-67
2022/08/09 01:52:45;;;;;;;13.03;4.60;;;;;;;15.55;87.45;100286.66;5062212;28;19928;-68
2022/08/09 01:55:12;;;;;;;11.23;4.43;;;;;;;15.68;86.96;100288.69;5062081;28;20368;-66
2022/08/09 01:57:41;;;;;;;9.95;5.22;;;;;;;15.73;86.77;100291.38;5043077;28;20072;-68
2022/08/09 02:00:09;;;;;;;12.00;5.05;;;;;;;15.81;86.29;100289.88;5061405;28;20079;-67
2022/08/09 02:02:44;;;;;;;12.13;5.65;;;;;;;15.92;86.10;100289.78;5062714;28;20048;-66
2022/08/09 02:05:13;;;;;;;10.73;4.72;;;;;;;16.01;85.34;100287.97;5061185;28;20044;-67
2022/08/09 02:07:44;;;;;;;11.07;5.32;;;;;;;16.06;84.76;100301.69;5060942;28;20048;-67
2022/08/09 02:10:17;;;;;;;13.57;6.13;;;;;;;16.01;84.80;100302.56;5062192;28;20139;-67
2022/08/09 02:12:44;;;;;;;21.13;6.22;;;;;;;16.05;84.60;100299.22;5062688;28;20395;-67
2022/08/09 02:15:14;;;;;;;11.30;5.57;;;;;;;15.97;84.59;100298.78;5067347;28;20425;-67
2022/08/09 02:17:43;;;;;;;11.73;5.32;;;;;;;15.86;84.54;100298.09;5061817;28;20066;-66
2022/08/09 02:20:11;;;;;;;10.57;4.80;;;;;;;15.83;84.76;100309.69;5063327;28;20676;-66
2022/08/09 02:22:41;;;;;;;10.70;5.72;;;;;;;15.80;84.50;100315.81;5060858;28;20604;-67
2022/08/09 02:25:11;;;;;;;9.82;5.28;;;;;;;15.79;84.60;100305.91;5060329;28;20052;-66
2022/08/09 02:27:43;;;;;;;13.73;5.53;;;;;;;15.84;84.28;100310.53;5081604;28;20154;-67
2022/08/09 02:30:10;;;;;;;10.60;5.43;;;;;;;15.80;84.56;100304.78;5080606;28;20081;-67
2022/08/09 02:32:42;;;;;;;12.43;5.63;;;;;;;15.83;84.61;100311.66;5082794;28;20067;-67
2022/08/09 02:35:17;;;;;;;13.63;5.28;;;;;;;15.83;84.90;100308.91;5081167;28;20058;-67
2022/08/09 02:37:46;;;;;;;12.18;6.25;;;;;;;15.87;84.77;100312.69;5048494;28;20053;-67
2022/08/09 02:40:15;;;;;;;11.70;6.18;;;;;;;15.88;84.35;100312.41;5060628;28;20079;-67
2022/08/09 02:42:45;;;;;;;15.00;6.00;;;;;;;15.90;84.23;100320.38;5043443;28;20479;-67
2022/08/09 02:45:14;;;;;;;14.73;5.93;;;;;;;15.94;83.99;100326.97;5064276;28;20143;-67
2022/08/09 02:47:42;;;;;;;11.93;5.72;;;;;;;15.96;84.44;100310.94;5066064;28;20053;-66
2022/08/09 02:50:14;;;;;;;11.70;5.70;;;;;;;16.16;84.00;100320.84;5062282;28;20139;-67
2022/08/09 02:52:45;;;;;;;10.18;5.20;;;;;;;16.34;83.36;100323.03;5045100;28;20175;-67
2022/08/09 02:55:12;;;;;;;16.08;6.25;;;;;;;16.43;82.16;100324.81;5059869;28;20074;-67
2022/08/09 02:57:40;;;;;;;11.95;5.32;;;;;;;16.42;82.34;100325.13;5045244;28;20044;-73
2022/08/09 03:00:11;;;;;;;11.65;5.93;;;;;;;16.48;82.08;100325.88;5080391;28;20483;-72
2022/08/09 03:02:39;;;;;;;13.40;5.60;;;;;;;16.58;81.77;100329.25;5081440;28;20113;-72
2022/08/09 03:05:08;;;;;;;15.32;6.72;;;;;;;16.63;80.97;100336.63;5083655;28;20492;-71
2022/08/09 03:07:36;;;;;;;17.02;6.25;;;;;;;16.65;80.97;100328.03;5082002;28;20062;-73
2022/08/09 03:10:03;;;;;;;11.57;5.45;;;;;;;16.76;80.82;100339.72;5078471;28;20430;-71
2022/08/09 03:12:31;;;;;;;11.45;6.00;;;;;;;16.80;80.27;100340.78;5063495;28;20052;-72
2022/08/09 03:14:59;;;;;;;14.23;6.72;;;;;;;16.83;80.25;100342.91;5081559;28;20063;-71
2022/08/09 03:17:25;;;;;;;;;;;;;;;16.78;80.09;100352.09;5082645;28;20565;-71
2022/08/09 03:19:54;;;;;;;18.67;8.50;;;;;;;16.73;79.63;100343.91;5082122;28;20338;-71
2022/08/09 03:22:20;;;;;;;17.02;8.52;;;;;;;16.72;79.44;100339.53;5086363;28;20062;-71
2022/08/09 03:24:47;;;;;;;15.30;8.73;;;;;;;16.73;79.42;100332.88;5086440;28;20044;-71
2022/08/09 03:27:14;;;;;;;;;;;;;;;16.70;79.14;100331.53;5084393;28;20060;-72
2022/08/09 03:29:42;;;;;;;16.40;8.13;;;;;;;16.65;79.18;100322.53;5085297;28;19932;-72
2022/08/09 03:32:08;;;;;;;20.38;8.32;;;;;;;16.59;79.11;100322.63;5085757;28;20067;-72
2022/08/09 03:34:34;;;;;;;16.67;7.93;;;;;;;16.59;78.99;100324.53;5086553;28;20070;-71
2022/08/09 03:37:00;;;;;;;16.27;9.10;;;;;;;16.62;79.19;100328.66;5085012;28;20135;-72
2022/08/09 03:39:27;;;;;;;16.98;8.57;;;;;;;16.57;79.30;100333.16;5085937;28;20062;-71
2022/08/09 03:41:54;;;;;;;18.33;9.00;;;;;;;16.62;79.70;100337.72;5085156;28;20078;-68
2022/08/09 03:44:21;;;;;;;;;;;;;;;16.71;79.17;100327.66;5088420;28;20055;-68
2022/08/09 03:46:48;;;;;;;19.52;8.35;;;;;;;16.73;78.47;100332.88;5086556;28;19947;-67
2022/08/09 03:49:16;;;;;;;18.10;8.38;;;;;;;16.71;78.20;100324.09;5087116;28;20451;-67
2022/08/09 03:51:44;;;;;;;16.08;8.10;;;;;;;16.71;78.09;100324.09;5073280;28;20052;-67
2022/08/09 03:54:12;;;;;;;13.27;7.35;;;;;;;16.75;78.45;100325.09;5062460;28;20132;-67
2022/08/09 03:56:39;;;;;;;13.98;7.95;;;;;;;16.82;77.94;100327.47;5061034;28;20052;-67
2022/08/09 03:59:07;;;;;;;14.88;6.68;;;;;;;16.84;77.57;100333.50;5066035;28;20340;-67
2022/08/09 04:01:35;;;;;;;14.98;7.05;;;;;;;16.96;77.59;100325.56;5064370;28;20368;-69
2022/08/09 04:04:02;;;;;;;17.58;7.25;;;;;;;17.08;76.77;100330.59;5065660;28;20068;-68
2022/08/09 04:06:29;;;;;;;12.77;7.18;;;;;;;17.12;76.14;100334.38;5065784;28;20603;-68
2022/08/09 04:08:55;;;;;;;15.32;7.50;;;;;;;17.15;76.43;100335.72;5072370;28;20121;-68
2022/08/09 04:11:21;;;;;;;12.02;6.57;;;;;;;17.18;76.10;100337.88;5064765;28;20068;-67
2022/08/09 04:13:47;;;;;;;16.67;7.03;;;;;;;17.24;75.93;100331.09;5029615;28;20146;-67
2022/08/09 04:16:14;;;;;;;16.77;8.10;;;;;;;17.30;76.21;100337.34;5062865;28;20047;-71
2022/08/09 04:18:41;;;;;;;;;;;;;;;17.39;76.05;100345.75;5079812;28;20052;-72
2022/08/09 04:21:08;;;;;;;13.68;6.53;;;;;;;17.47;75.29;100341.44;5045517;28;19924;-73
2022/08/09 04:23:34;;;;;;;15.15;6.22;;;;;;;17.51;75.06;100339.72;5048788;28;20143;-71
2022/08/09 04:26:00;;;;;;;15.77;6.55;;;;;;;17.71;74.69;100338.44;5079692;28;20772;-72
2022/08/09 04:28:26;;;;;;;15.63;6.68;;;;;;;17.79;73.83;100332.19;5065823;28;20468;-73
2022/08/09 04:30:52;;;;;;;11.77;5.93;;;;;;;17.76;73.65;100335.56;5064362;28;20079;-72
2022/08/09 04:33:19;;;;;;;11.23;5.82;;;;;;;17.75;73.71;100327.56;5082606;28;20048;-73
2022/08/09 04:35:45;;;;;;;;;;;;;;;17.85;73.61;100332.88;5082429;28;20485;-71
2022/08/09 04:38:11;;;;;;;14.13;6.90;;;;;;;17.81;73.23;100329.91;5081825;28;19952;-71
2022/08/09 04:40:49;;;;;;;12.73;6.03;;;;;;;17.79;73.53;100329.41;5083728;28;20458;-71
2022/08/09 04:43:16;;;;;;;10.98;5.53;;;;;;;17.79;73.20;100334.94;5082996;28;20465;-71
2022/08/09 04:45:42;;;;;;;10.93;5.53;;;;;;;17.80;73.75;100330.25;5052186;28;20154;-72
2022/08/09 04:48:08;;;;;;;11.88;6.32;;;;;;;17.76;73.02;100324.50;5062880;28;20096;-72
2022/08/09 04:50:36;;;;;;;11.35;5.75;;;;;;;17.81;73.33;100329.91;5063632;28;20098;-72
2022/08/09 04:53:04;;;;;;;13.02;5.88;;;;;;;17.72;73.88;100331.81;5065187;28;20044;-68
2022/08/09 04:55:31;;;;;;;10.50;6.05;;;;;;;17.62;74.34;100320.94;5066118;28;20078;-68
2022/08/09 04:57:57;;;;;;;11.85;5.78;;;;;;;17.51;75.16;100325.88;5059556;28;20051;-68
2022/08/09 05:00:23;;;;;;;13.27;6.88;;;;;;;17.43;75.48;100322.72;5063608;28;20143;-67
2022/08/09 05:02:49;;;;;;;11.23;6.18;;;;;;;17.36;75.73;100313.19;5061708;28;20052;-67
2022/08/09 05:05:15;;;;;;;16.45;6.18;;;;;;;17.36;76.09;100319.56;5062186;28;20041;-67
2022/08/09 05:07:43;;;;;;;11.63;5.30;;;;;;;17.35;75.89;100322.63;5062072;28;20056;-68
2022/08/09 05:10:11;;;;;;;12.65;5.75;;;;;;;17.39;76.06;100307.88;5062520;28;20047;-67
2022/08/09 05:12:37;;;;;;;14.77;6.40;;;;;;;17.46;75.94;100295.56;5065558;28;20060;-67
2022/08/09 05:15:04;;;;;;;15.10;6.60;;;;;;;17.57;75.74;100302.53;5066128;28;20400;-67
2022/08/09 05:17:31;;;;;;;19.30;6.13;;;;;;;17.70;75.88;100298.09;5066369;28;20084;-67
2022/08/09 05:19:57;;;;;;;14.75;6.85;;;;;;;17.85;75.31;100305.22;5057888;28;20083;-68
2022/08/09 05:22:23;;;;;;;15.35;6.05;;;;;;;17.96;75.08;100311.34;5064078;28;20165;-67
2022/08/09 05:24:50;;;;;;;12.38;5.80;;;;;;;18.07;74.68;100306.41;5064392;28;20063;-68
2022/08/09 05:27:16;;;;;;;;;;;;;;;18.11;74.42;100307.44;5065598;28;20068;-67
2022/08/09 05:29:42;;;;;;;12.30;5.47;;;;;;;18.18;74.28;100313.34;5084673;28;20396;-73
2022/08/09 05:32:08;;;;;;;17.77;5.97;;;;;;;18.18;74.14;100305.03;5070309;28;20047;-73
2022/08/09 05:34:34;;;;;;;13.98;6.15;;;;;;;18.19;74.22;100300.34;5080502;28;20044;-72
2022/08/09 05:37:02;;;;;;;14.70;6.50;;;;;;;18.23;73.73;100309.63;5082811;28;20043;-73
2022/08/09 05:39:28;;;;;;;12.00;5.78;;;;;;;18.28;73.67;100304.81;5079888;28;20100;-72
2022/08/09 05:41:55;;;;;;;12.70;5.65;;;;;;;18.28;73.36;100307.56;5082650;28;20048;-72
2022/08/09 05:44:21;;;;;;;19.67;5.93;;;;;;;18.37;72.86;100313.16;5080022;28;20051;-72
2022/08/09 05:46:47;;;;;;;11.35;5.90;;;;;;;18.45;72.28;100319.88;5083868;28;20557;-72
2022/08/09 05:49:13;;;;;;;13.02;5.90;;;;;;;18.50;71.52;100311.44;5080079;28;20544;-72
2022/08/09 05:51:40;;;;;;;12.57;5.53;;;;;;;18.58;71.55;100312.63;5085388;28;20048;-67
2022/08/09 05:54:06;;;;;;;13.15;6.20;;;;;;;18.63;71.27;100308.91;5079768;28;20642;-67
2022/08/09 05:56:32;;;;;;;13.27;6.25;;;;;;;18.56;71.19;100301.06;5082583;28;20230;-66
2022/08/09 05:58:59;;;;;;;15.52;6.45;;;;;;;18.57;71.26;100316.53;5064288;28;20185;-67
2022/08/09 06:01:27;;;;;;;14.60;6.25;;;;;;;18.55;71.02;100314.06;5079423;28;20063;-67
2022/08/09 06:03:53;;;;;;;11.70;6.03;;;;;;;18.55;71.36;100308.53;5081488;28;20050;-69
2022/08/09 06:06:19;;;;;;;14.30;6.65;;;;;;;18.63;70.85;100306.94;5081943;28;20040;-67
2022/08/09 06:08:45;;;;;;;15.05;6.07;;;;;;;18.67;70.18;100309.91;5080271;28;20048;-68
2022/08/09 06:11:11;;;;;;;13.90;6.30;;;;;;;18.69;69.77;100308.47;5081590;28;20477;-67
2022/08/09 06:13:37;;;;;;;11.52;5.10;;;;;;;18.76;69.43;100308.03;5066140;28;20078;-67
2022/08/09 06:16:05;;;;;;;10.75;5.45;;;;;;;19.06;68.03;100313.88;5068167;28;20221;-67
2022/08/09 06:18:32;;;;;;;10.82;5.15;;;;;;;19.27;67.34;100304.97;4735087;28;9999938;-68
2022/08/09 06:20:58;;;;;;;18.70;5.43;;;;;;;19.37;66.94;100307.47;5075736;28;20082;-66
2022/08/09 06:23:26;;;;;;;16.98;5.18;;;;;;;19.47;66.67;100302.75;5061564;28;20087;-68
2022/08/09 06:25:52;;;;;;;15.90;5.40;;;;;;;19.41;66.42;100310.38;5057741;28;20565;-67
2022/08/09 06:28:18;;;;;;;12.73;5.20;;;;;;;19.42;66.22;100300.94;5063722;28;20043;-68
2022/08/09 06:30:44;;;;;;;13.23;5.72;;;;;;;19.46;66.00;100292.78;5072873;28;20050;-71
2022/08/09 06:33:12;;;;;;;11.75;5.03;;;;;;;19.36;66.38;100297.53;5072091;28;20542;-72
2022/08/09 06:35:37;;;;;;;;;;;;;;;19.26;66.42;100306.94;5071101;28;20143;-72
2022/08/09 06:38:03;;;;;;;15.13;5.73;;;;;;;19.13;66.54;100305.13;5062830;28;20118;-68
2022/08/09 06:40:29;;;;;;;14.90;5.47;;;;;;;19.10;66.82;100300.19;5059997;28;20049;-67
2022/08/09 06:42:56;;;;;;;17.83;5.28;;;;;;;19.07;67.15;100304.44;5064357;28;20036;-67
2022/08/09 06:45:23;;;;;;;14.35;5.05;;;;;;;19.03;67.57;100305.38;5071554;28;20044;-67
2022/08/09 06:47:49;;;;;;;11.57;4.90;;;;;;;18.99;67.32;100299.66;5080412;28;20613;-67
2022/08/09 06:50:17;;;;;;;12.10;4.97;;;;;;;19.04;67.40;100302.28;5075173;28;20155;-71
2022/08/09 06:52:45;;;;;;;12.85;5.13;;;;;;;19.13;67.35;100303.16;5059240;28;20299;-72
2022/08/09 06:55:12;;;;;;;10.50;4.97;;;;;;;19.16;67.11;100298.09;5072960;28;20109;-72
2022/08/09 06:57:38;;;;;;;11.73;3.92;;;;;;;19.13;67.28;100294.81;5047414;28;20127;-71
2022/08/09 07:00:05;;;;;;;16.88;4.40;;;;;;;19.17;67.13;100295.00;5078133;28;20288;-72
2022/08/09 07:02:32;;;;;;;20.08;5.35;;;;;;;19.19;67.23;100300.22;5080604;28;20036;-71
2022/08/09 07:04:58;;;;;;;14.95;5.55;;;;;;;19.10;67.19;100303.78;5069295;28;20052;-73
2022/08/09 07:07:26;;;;;;;12.55;4.80;;;;;;;19.03;67.26;100299.84;5075872;28;20058;-72
2022/08/09 07:09:52;;;;;;;16.27;4.85;;;;;;;19.01;67.46;100311.25;5071561;28;20060;-73
2022/08/09 07:12:18;;;;;;;10.52;4.90;;;;;;;19.02;67.54;100301.78;5081717;28;20044;-72
2022/08/09 07:14:44;;;;;;;17.60;5.15;;;;;;;19.12;67.35;100312.59;5082030;28;20052;-72
2022/08/09 07:17:10;;;;;;;14.50;5.00;;;;;;;19.09;67.12;100301.31;5085167;28;20084;-72
2022/08/09 07:19:36;;;;;;;13.95;4.50;;;;;;;18.95;67.28;100310.53;5080499;28;20221;-71
2022/08/09 07:22:02;;;;;;;19.35;5.15;;;;;;;18.89;67.26;100310.97;5072491;28;20054;-73
2022/08/09 07:24:30;;;;;;;12.02;5.22;;;;;;;18.83;67.88;100310.34;5080435;28;20360;-71
2022/08/09 07:26:55;;;;;;;;;;;;;;;18.81;67.77;100312.56;5079055;28;20502;-72
2022/08/09 07:29:22;;;;;;;11.32;4.45;;;;;;;18.82;68.30;100317.81;5074117;28;19939;-73
2022/08/09 07:31:48;;;;;;;14.02;4.47;;;;;;;18.91;68.65;100325.38;5078504;28;20052;-72
2022/08/09 07:34:14;;;;;;;12.13;4.53;;;;;;;18.91;69.20;100326.16;5076113;28;20520;-72
2022/08/09 07:36:40;;;;;;;15.85;5.22;;;;;;;18.90;69.64;100324.53;5079667;28;20046;-73
2022/08/09 07:39:06;;;;;;;13.68;5.22;;;;;;;18.90;70.21;100326.50;5081493;28;20048;-73
2022/08/09 07:41:33;;;;;;;10.93;4.60;;;;;;;18.82;71.49;100328.88;5082261;28;20051;-72
2022/08/09 07:44:01;;;;;;;10.50;4.13;;;;;;;18.77;72.36;100323.50;5081199;28;20044;-73
2022/08/09 07:46:26;;;;;;;;;;;;;;;18.64;73.38;100327.16;5076288;28;20079;-73
2022/08/09 07:48:52;;;;;;;9.90;4.85;;;;;;;18.64;73.62;100327.16;5078383;28;20039;-73
2022/08/09 07:51:18;;;;;;;12.20;4.55;;;;;;;18.78;73.05;100329.84;5077285;28;20044;-73
2022/08/09 07:53:45;;;;;;;13.40;5.45;;;;;;;18.98;72.42;100321.00;5078860;28;20047;-72
2022/08/09 07:56:11;;;;;;;16.02;5.60;;;;;;;19.23;71.49;100315.88;5076350;28;20066;-73
2022/08/09 07:58:39;;;;;;;15.00;5.07;;;;;;;19.43;70.78;100305.34;5081340;28;20060;-72
2022/08/09 08:01:05;;;;;;;22.95;5.25;;;;;;;19.54;69.91;100311.41;5076581;28;20472;-73
2022/08/09 08:03:31;;;;;;;13.90;4.55;;;;;;;19.55;69.38;100304.72;5079865;28;20164;-73
2022/08/09 08:05:57;;;;;;;12.23;4.63;;;;;;;19.56;69.35;100309.94;4374040;28;10000291;-73
2022/08/09 08:08:23;;;;;;;22.90;5.78;;;;;;;19.58;69.43;100319.88;5077474;28;20647;-73
2022/08/09 08:10:50;;;;;;;19.10;4.97;;;;;;;19.67;69.28;100329.88;5070719;28;20117;-73
2022/08/09 08:13:16;;;;;;;13.85;5.65;;;;;;;19.95;68.45;100329.59;5059304;28;20417;-73
2022/08/09 08:15:44;;;;;;;17.48;5.00;;;;;;;20.17;67.25;100325.03;5051090;28;20048;-73
2022/08/09 08:18:10;;;;;;;11.20;4.43;;;;;;;20.44;66.01;100336.91;5069888;28;20509;-67
2022/08/09 08:20:37;;;;;;;12.03;6.07;;;;;;;20.62;65.29;100337.72;5033886;28;20051;-69
2022/08/09 08:23:04;;;;;;;12.23;4.80;;;;;;;20.62;65.08;100339.69;5068803;28;20039;-67
2022/08/09 08:25:30;;;;;;;14.55;5.00;;;;;;;20.62;64.64;100336.91;5069977;28;20044;-67
2022/08/09 08:27:57;;;;;;;16.10;4.88;;;;;;;20.59;64.97;100334.78;5076104;28;20044;-67
2022/08/09 08:30:23;;;;;;;10.75;4.75;;;;;;;20.56;64.96;100336.25;5078468;28;20047;-67
2022/08/09 08:32:51;;;;;;;10.30;4.57;;;;;;;20.45;65.03;100343.31;5067768;28;20416;-67
2022/08/09 08:35:17;;;;;;;11.70;4.60;;;;;;;20.39;64.87;100342.66;5066938;28;20132;-68
2022/08/09 08:37:44;;;;;;;9.68;4.13;;;;;;;20.35;64.91;100336.13;5068655;28;20136;-68
2022/08/09 08:40:11;;;;;;;10.63;4.63;;;;;;;20.41;64.49;100337.56;5075169;28;20196;-67
2022/08/09 08:42:37;;;;;;;;;;;;;;;20.35;64.51;100325.81;5055385;28;20071;-67
2022/08/09 08:45:04;;;;;;;16.83;4.40;;;;;;;20.52;64.33;100340.81;5032836;28;20269;-72
2022/08/09 08:47:30;;;;;;;13.02;4.70;;;;;;;20.64;63.62;100342.94;5076629;28;20040;-72
2022/08/09 08:49:58;;;;;;;15.75;4.60;;;;;;;20.65;64.00;100339.81;5076560;28;20527;-73
2022/08/09 08:52:26;;;;;;;12.48;4.70;;;;;;;20.80;63.16;100346.00;5054239;28;20124;-68
2022/08/09 08:54:52;;;;;;;13.68;4.50;;;;;;;21.12;62.05;100338.22;5072400;28;20159;-72
2022/08/09 08:57:19;;;;;;;11.27;4.45;;;;;;;21.45;61.01;100343.16;5078258;28;20047;-73
2022/08/09 08:59:45;;;;;;;18.13;4.78;;;;;;;21.67;60.48;100344.84;5081316;28;20147;-74
2022/08/09 09:02:20;;;;;;;19.85;5.63;;;;;;;21.71;60.11;100345.00;5078105;28;20143;-72
2022/08/09 09:04:46;;;;;;;12.95;5.63;;;;;;;21.54;60.22;100343.09;5076764;28;20090;-73
2022/08/09 09:07:15;;;;;;;15.13;5.30;;;;;;;21.38;60.11;100342.88;5074143;28;20054;-74
2022/08/09 09:09:45;;;;;;;16.55;5.05;;;;;;;21.23;60.65;100347.03;5076009;28;20052;-71
2022/08/09 09:12:12;;;;;;;14.77;4.95;;;;;;;21.06;60.65;100343.16;5077219;28;20051;-72
2022/08/09 09:14:39;;;;;;;20.33;5.15;;;;;;;21.00;61.39;100347.28;5079075;28;20130;-72
2022/08/09 09:17:05;;;;;;;29.02;5.45;;;;;;;21.12;61.31;100335.47;5073914;28;20095;-72
2022/08/09 09:19:30;;;;;;;14.13;5.72;;;;;;;21.17;61.70;100349.19;5072789;28;20196;-71
2022/08/09 09:22:03;;;;;;;12.73;5.70;;;;;;;21.16;61.93;100343.94;5073553;28;20210;-67
2022/08/09 09:24:32;;;;;;;20.17;5.20;;;;;;;21.28;61.44;100335.72;5069441;28;20363;-73
2022/08/09 09:27:00;;;;;;;24.85;5.88;;;;;;;21.53;61.08;100333.94;5073160;28;20186;-72
2022/08/09 09:29:28;;;;;;;18.38;5.35;;;;;;;22.01;59.85;100332.97;5075653;28;20043;-72
2022/08/09 09:31:54;;;;;;;16.02;5.07;;;;;;;22.34;58.39;100332.22;5074023;28;20044;-72
2022/08/09 09:34:20;;;;;;;14.45;4.90;;;;;;;23.02;57.09;100330.19;5073553;28;20060;-71
2022/08/09 09:36:47;;;;;;;13.85;5.40;;;;;;;23.88;54.46;100328.56;5073337;28;20047;-71
2022/08/09 09:39:13;;;;;;;15.13;4.95;;;;;;;25.16;51.03;100330.88;5070195;28;20594;-72
2022/08/09 09:41:40;;;;;;;10.75;4.80;;;;;;;26.16;48.34;100327.94;5067360;28;20051;-68
2022/08/09 09:44:14;;;;;;;10.93;5.35;;;;;;;26.12;47.83;100319.44;5069749;28;20040;-68
2022/08/09 09:46:42;;;;;;;13.43;5.20;;;;;;;25.39;49.32;100325.44;5071521;28;20132;-66
2022/08/09 09:49:10;;;;;;;13.05;5.32;;;;;;;25.27;49.39;100319.94;5074598;28;20048;-72
2022/08/09 09:51:38;;;;;;;13.07;5.28;;;;;;;25.21;49.44;100319.41;5056016;28;20181;-73
2022/08/09 09:54:07;;;;;;;13.82;5.05;;;;;;;24.62;50.40;100324.66;5077063;28;20043;-73
2022/08/09 09:56:36;;;;;;;14.63;5.88;;;;;;;24.43;51.25;100317.78;5075890;28;20044;-72
2022/08/09 09:59:04;;;;;;;20.52;5.10;;;;;;;24.71;50.64;100319.72;5074028;28;20461;-71
2022/08/09 10:01:30;;;;;;;10.95;4.82;;;;;;;24.69;50.24;100313.69;5074682;28;20403;-72
2022/08/09 10:03:57;;;;;;;15.07;4.93;;;;;;;24.49;50.70;100312.75;5077367;28;20044;-72
2022/08/09 10:06:23;;;;;;;12.65;4.35;;;;;;;24.12;51.28;100310.13;5064523;28;20051;-73
2022/08/09 10:08:51;;;;;;;16.20;5.72;;;;;;;23.56;52.80;100318.03;5073146;28;20504;-72
2022/08/09 10:11:19;;;;;;;13.68;5.32;;;;;;;23.56;53.79;100320.00;5070298;28;20056;-72
2022/08/09 10:13:46;;;;;;;17.58;5.38;;;;;;;24.03;52.69;100313.06;5077809;28;20048;-71
2022/08/09 10:16:14;;;;;;;14.50;5.22;;;;;;;24.01;52.35;100315.38;5078275;28;20279;-72
2022/08/09 10:18:50;;;;;;;11.75;4.95;;;;;;;23.80;52.39;100316.38;5071202;28;20138;-71
2022/08/09 10:21:16;;;;;;;16.17;5.95;;;;;;;23.32;53.56;100322.47;5069934;28;20080;-72
2022/08/09 10:23:43;;;;;;;15.20;5.20;;;;;;;22.88;55.11;100320.22;5069267;28;20387;-67
2022/08/09 10:26:10;;;;;;;15.70;5.18;;;;;;;22.74;55.67;100320.53;5070243;28;20063;-72
2022/08/09 10:28:38;;;;;;;12.48;5.35;;;;;;;22.99;55.29;100315.00;5075596;28;20444;-72
2022/08/09 10:31:06;;;;;;;12.13;5.18;;;;;;;24.26;51.85;100318.91;5078110;28;20304;-72
2022/08/09 10:33:35;;;;;;;11.63;4.95;;;;;;;25.17;49.38;100313.72;5075135;28;20063;-72
2022/08/09 10:36:01;;;;;;;13.27;5.28;;;;;;;25.53;48.11;100310.97;5068079;28;20045;-73
2022/08/09 10:38:28;;;;;;;18.13;4.72;;;;;;;25.12;48.61;100296.38;5071678;28;20156;-72
2022/08/09 10:40:54;;;;;;;13.15;4.50;;;;;;;24.54;49.71;100317.28;5074025;28;20032;-72
2022/08/09 10:43:20;;;;;;;9.40;4.30;;;;;;;24.54;49.63;100323.66;5070562;28;20216;-72
2022/08/09 10:45:48;;;;;;;11.77;4.72;;;;;;;24.97;48.64;100315.59;5069267;28;20047;-72
2022/08/09 10:48:20;;;;;;;13.00;4.80;;;;;;;25.25;48.05;100317.50;5065878;28;20181;-73
2022/08/09 10:51:08;;;;;;;9.98;4.82;;;;;;;25.42;47.66;100316.31;5061174;28;20048;-73
2022/08/09 10:53:47;;;;;;;11.30;5.07;;;;;;;25.00;48.47;100312.13;5045238;28;20040;-72
2022/08/09 10:56:15;;;;;;;11.18;5.07;;;;;;;24.54;49.66;100323.66;5047552;28;20159;-71
2022/08/09 10:58:41;;;;;;;13.13;4.57;;;;;;;24.59;49.75;100320.63;5069195;28;20076;-72
2022/08/09 11:01:38;;;;;;;9.93;4.70;;;;;;;24.72;49.22;100326.94;5076103;28;20044;-72
2022/08/09 11:04:19;;;;;;;9.13;3.97;;;;;;;25.37;47.36;100316.59;5073297;28;20089;-71
2022/08/09 11:06:48;;;;;;;9.18;3.90;;;;;;;25.67;46.56;100324.47;5063076;28;20137;-72
2022/08/09 11:09:38;;;;;;;12.60;4.72;;;;;;;25.39;46.78;100317.03;5073260;28;20146;-73
2022/08/09 11:12:11;;;;;;;13.95;4.82;;;;;;;25.01;48.14;100324.09;5076516;28;20055;-72
2022/08/09 11:14:40;;;;;;;15.20;5.22;;;;;;;24.74;48.95;100329.38;5074705;28;20215;-73
2022/08/09 11:17:45;;;;;;;12.57;4.72;;;;;;;24.66;49.44;100328.38;5072541;28;20059;-73
2022/08/09 11:20:12;;;;;;;10.95;5.20;;;;;;;24.84;49.11;100326.06;4997835;28;20058;-73
2022/08/09 11:23:01;;;;;;;14.23;5.75;;;;;;;24.88;48.76;100313.00;4982026;28;20541;-73
2022/08/09 11:25:36;;;;;;;12.27;5.50;;;;;;;24.76;48.99;100325.06;4996008;28;20064;-73